createdAt,value
2019-05-15T00:00:38.817Z,7.10
2019-05-15T00:03:08.536Z,7.10
2019-05-15T00:05:34.579Z,7.00
2019-05-15T00:08:01.007Z,7.00
2019-05-15T00:10:28.808Z,7.00
2019-05-15T00:12:55.330Z,6.90
2019-05-15T00:15:21.734Z,6.90
2019-05-15T00:17:48.678Z,6.90
2019-05-15T00:20:15.106Z,7.00
2019-05-15T00:22:41.452Z,7.00
2019-05-15T00:25:09.243Z,6.90
2019-05-15T00:27:38.301Z,6.90
2019-05-15T00:30:09.297Z,6.90
2019-05-15T00:32:35.787Z,6.90
2019-05-15T00:35:04.808Z,6.90
2019-05-15T00:37:31.252Z,6.90
2019-05-15T00:39:59.250Z,6.90
2019-05-15T00:42:25.831Z,6.90
2019-05-15T00:44:52.275Z,6.90
2019-05-15T00:47:18.677Z,6.90
2019-05-15T00:49:45.040Z,6.90
2019-05-15T00:52:12.341Z,6.90
2019-05-15T00:54:38.952Z,6.90
2019-05-15T00:57:05.235Z,7.00
2019-05-15T00:59:31.596Z,6.90
2019-05-15T01:01:59.415Z,6.90
2019-05-15T01:04:27.968Z,6.90
2019-05-15T01:06:54.285Z,6.80
2019-05-15T01:09:20.597Z,6.80
2019-05-15T01:11:48.805Z,6.80
2019-05-15T01:14:15.178Z,6.70
2019-05-15T01:16:41.589Z,6.80
2019-05-15T01:19:09.291Z,6.90
2019-05-15T01:21:35.790Z,6.80
2019-05-15T01:24:02.152Z,6.80
2019-05-15T01:26:28.461Z,6.70
2019-05-15T01:28:54.845Z,6.70
2019-05-15T01:31:21.165Z,6.70
2019-05-15T01:33:48.089Z,6.70
2019-05-15T01:36:14.565Z,6.70
2019-05-15T01:38:40.949Z,6.70
2019-05-15T01:41:09.483Z,6.70
2019-05-15T01:43:37.948Z,6.70
2019-05-15T01:46:03.671Z,6.70
2019-05-15T01:48:30.110Z,6.70
2019-05-15T01:50:58.536Z,6.80
2019-05-15T01:53:24.713Z,6.70
2019-05-15T01:55:51.144Z,6.70
2019-05-15T01:58:18.644Z,6.70
2019-05-15T02:00:48.391Z,6.70
2019-05-15T02:03:14.555Z,6.70
2019-05-15T02:05:40.925Z,6.70
2019-05-15T02:08:08.220Z,6.60
2019-05-15T02:10:34.787Z,6.70
2019-05-15T02:13:01.167Z,6.70
2019-05-15T02:15:28.555Z,6.60
2019-05-15T02:17:55.092Z,6.70
2019-05-15T02:20:21.408Z,6.70
2019-05-15T02:22:48.499Z,6.70
2019-05-15T02:25:15.086Z,6.60
2019-05-15T02:27:41.461Z,6.70
2019-05-15T02:30:17.994Z,6.70
2019-05-15T02:32:39.487Z,6.70
2019-05-15T02:35:10.065Z,6.80
2019-05-15T02:37:35.588Z,6.80
2019-05-15T02:40:03.778Z,6.80
2019-05-15T02:42:30.220Z,6.70
2019-05-15T02:44:58.686Z,6.80
2019-05-15T02:47:25.231Z,6.80
2019-05-15T02:49:51.571Z,6.80
2019-05-15T02:52:19.841Z,6.80
2019-05-15T02:54:49.524Z,6.90
2019-05-15T02:57:14.342Z,6.90
2019-05-15T02:59:40.677Z,6.90
2019-05-15T03:02:09.872Z,6.90
2019-05-15T03:04:35.205Z,6.80
2019-05-15T03:07:01.634Z,6.90
2019-05-15T03:09:29.739Z,6.80
2019-05-15T03:11:58.707Z,6.80
2019-05-15T03:14:24.249Z,6.80
2019-05-15T03:16:50.598Z,6.80
2019-05-15T03:19:19.283Z,6.90
2019-05-15T03:21:45.459Z,6.90
2019-05-15T03:24:12.138Z,6.90
2019-05-15T03:26:39.516Z,6.90
2019-05-15T03:29:09.494Z,6.90
2019-05-15T03:31:49.049Z,7.00
2019-05-15T03:34:03.838Z,7.30
2019-05-15T03:36:31.991Z,7.00
2019-05-15T03:38:58.846Z,7.10
2019-05-15T03:41:25.261Z,7.10
2019-05-15T03:43:51.645Z,7.20
2019-05-15T03:46:20.061Z,7.30
2019-05-15T03:48:48.779Z,7.20
2019-05-15T03:51:14.785Z,7.30
2019-05-15T03:53:41.094Z,7.40
2019-05-15T03:56:09.694Z,7.40
2019-05-15T03:58:35.805Z,7.40
2019-05-15T04:01:02.299Z,7.40
2019-05-15T04:03:29.986Z,7.40
2019-05-15T04:06:00.248Z,7.50
2019-05-15T04:08:25.307Z,7.60
2019-05-15T04:10:51.617Z,7.70
2019-05-15T04:13:19.520Z,7.70
2019-05-15T04:15:46.111Z,7.70
2019-05-15T04:18:12.523Z,7.80
2019-05-15T04:20:40.587Z,7.80
2019-05-15T04:23:10.080Z,7.80
2019-05-15T04:25:39.088Z,7.80
2019-05-15T04:28:04.657Z,7.80
2019-05-15T04:30:31.112Z,7.80
2019-05-15T04:32:59.445Z,7.90
2019-05-15T04:35:28.700Z,7.90
2019-05-15T04:37:54.071Z,7.90
2019-05-15T04:40:20.693Z,7.90
2019-05-15T04:42:49.720Z,8.00
2019-05-15T04:45:15.468Z,7.90
2019-05-15T04:47:41.869Z,7.90
2019-05-15T04:50:09.474Z,8.00
2019-05-15T04:52:42.444Z,8.00
2019-05-15T04:55:05.448Z,7.90
2019-05-15T04:57:34.078Z,8.00
2019-05-15T05:00:00.225Z,8.10
2019-05-15T05:02:28.774Z,8.00
2019-05-15T05:04:54.741Z,8.10
2019-05-15T05:07:21.359Z,8.10
2019-05-15T05:09:48.916Z,8.10
2019-05-15T05:12:15.536Z,8.10
2019-05-15T05:14:41.940Z,8.10
2019-05-15T05:17:09.056Z,8.20
2019-05-15T05:19:36.003Z,8.20
2019-05-15T05:22:02.371Z,8.30
2019-05-15T05:24:28.723Z,8.40
2019-05-15T05:26:55.103Z,8.40
2019-05-15T05:29:21.462Z,8.30
2019-05-15T05:31:49.101Z,8.30
2019-05-15T05:34:15.740Z,8.40
2019-05-15T05:36:42.133Z,8.50
2019-05-15T05:39:09.650Z,8.50
2019-05-15T05:41:39.000Z,8.50
2019-05-15T05:44:04.963Z,8.50
2019-05-15T05:46:31.331Z,8.50
2019-05-15T05:48:58.325Z,8.50
2019-05-15T05:51:24.829Z,8.50
2019-05-15T05:53:51.278Z,8.60
2019-05-15T05:56:18.148Z,8.50
2019-05-15T05:58:44.909Z,8.60
2019-05-15T06:01:11.602Z,8.50
2019-05-15T06:03:38.598Z,8.50
2019-05-15T06:06:05.306Z,8.50
2019-05-15T06:08:31.658Z,8.50
2019-05-15T06:10:58.472Z,8.60
2019-05-15T06:13:25.143Z,8.60
2019-05-15T06:15:51.551Z,8.60
2019-05-15T06:18:19.774Z,8.60
2019-05-15T06:20:49.393Z,8.50
2019-05-15T06:23:15.334Z,8.50
2019-05-15T06:25:41.767Z,8.60
2019-05-15T06:28:09.083Z,8.60
2019-05-15T06:30:38.427Z,8.60
2019-05-15T06:33:09.314Z,8.60
2019-05-15T06:35:32.009Z,8.70
2019-05-15T06:37:59.138Z,8.80
2019-05-15T06:40:25.740Z,8.80
2019-05-15T06:42:52.407Z,8.80
2019-05-15T06:45:19.436Z,8.90
2019-05-15T06:47:48.154Z,8.90
2019-05-15T06:50:20.907Z,8.90
2019-05-15T06:52:48.626Z,9.00
2019-05-15T06:55:15.149Z,9.10
2019-05-15T06:57:41.565Z,9.10
2019-05-15T07:00:08.540Z,9.10
2019-05-15T07:02:35.010Z,9.20
2019-05-15T07:05:01.482Z,9.30
2019-05-15T07:07:28.761Z,9.20
2019-05-15T07:09:55.202Z,9.20
2019-05-15T07:12:21.508Z,9.30
2019-05-15T07:14:48.717Z,9.20
2019-05-15T07:17:17.398Z,9.20
2019-05-15T07:19:43.405Z,9.20
2019-05-15T07:22:09.779Z,9.40
2019-05-15T07:24:38.224Z,9.40
2019-05-15T07:27:04.371Z,9.50
2019-05-15T07:29:30.758Z,9.50
2019-05-15T07:31:58.625Z,9.70
2019-05-15T07:34:25.245Z,9.90
2019-05-15T07:36:51.618Z,10.10
2019-05-15T07:39:18.105Z,10.20
2019-05-15T07:41:45.263Z,10.20
2019-05-15T07:44:11.693Z,10.20
2019-05-15T07:46:38.337Z,10.20
2019-05-15T07:49:05.021Z,10.30
2019-05-15T07:51:31.979Z,10.30
2019-05-15T07:53:58.587Z,10.30
2019-05-15T07:56:25.164Z,10.30
2019-05-15T07:58:52.906Z,10.40
2019-05-15T08:01:19.485Z,10.30
2019-05-15T08:03:56.533Z,10.40
2019-05-15T08:06:14.895Z,10.40
2019-05-15T08:08:41.254Z,10.40
2019-05-15T08:11:17.510Z,10.40
2019-05-15T08:13:38.178Z,10.50
2019-05-15T08:16:03.968Z,10.50
2019-05-15T08:18:30.372Z,10.50
2019-05-15T08:20:58.588Z,10.60
2019-05-15T08:23:25.009Z,10.60
2019-05-15T08:25:51.381Z,10.60
2019-05-15T08:28:19.001Z,10.70
2019-05-15T08:30:46.089Z,10.70
2019-05-15T08:33:13.132Z,10.80
2019-05-15T08:35:39.618Z,10.70
2019-05-15T08:38:08.647Z,10.80
2019-05-15T08:40:34.155Z,10.80
2019-05-15T08:43:02.159Z,10.90
2019-05-15T08:45:28.673Z,10.90
2019-05-15T08:47:55.019Z,10.90
2019-05-15T08:50:21.548Z,11.00
2019-05-15T08:52:48.714Z,11.10
2019-05-15T08:55:15.867Z,11.10
2019-05-15T08:57:42.244Z,11.10
2019-05-15T09:00:09.856Z,11.10
2019-05-15T09:02:38.238Z,11.10
2019-05-15T09:05:08.507Z,11.20
2019-05-15T09:07:34.861Z,11.20
2019-05-15T09:10:01.186Z,11.20
2019-05-15T09:12:29.450Z,11.40
2019-05-15T09:14:58.091Z,11.40
2019-05-15T09:17:24.664Z,11.50
2019-05-15T09:19:51.057Z,11.40
2019-05-15T09:22:18.698Z,11.50
2019-05-15T09:24:45.324Z,11.50
2019-05-15T09:27:11.700Z,11.40
2019-05-15T09:29:38.182Z,11.40
2019-05-15T09:32:04.640Z,11.30
2019-05-15T09:34:46.708Z,11.20
2019-05-15T09:36:59.959Z,11.30
2019-05-15T09:39:28.586Z,11.20
2019-05-15T09:41:54.774Z,11.20
2019-05-15T09:44:22.088Z,11.30
2019-05-15T09:46:48.960Z,11.40
2019-05-15T09:49:15.313Z,11.40
2019-05-15T09:51:42.347Z,11.40
2019-05-15T09:54:08.712Z,11.40
2019-05-15T09:56:35.142Z,11.50
2019-05-15T09:59:01.495Z,11.60
2019-05-15T10:01:28.520Z,11.70
2019-05-15T10:03:55.035Z,11.80
2019-05-15T10:06:21.430Z,11.80
2019-05-15T10:08:49.040Z,11.90
2019-05-15T10:11:15.622Z,12.00
2019-05-15T10:13:42.027Z,12.10
2019-05-15T10:16:09.547Z,12.10
2019-05-15T10:18:38.666Z,12.10
2019-05-15T10:21:04.188Z,12.30
2019-05-15T10:23:30.574Z,12.40
2019-05-15T10:25:58.930Z,12.30
2019-05-15T10:28:25.217Z,12.30
2019-05-15T10:30:51.536Z,12.30
2019-05-15T10:33:19.687Z,12.30
2019-05-15T10:35:46.297Z,12.30
2019-05-15T10:38:12.697Z,12.40
2019-05-15T10:40:44.405Z,12.50
2019-05-15T10:43:09.091Z,12.60
2019-05-15T10:45:35.422Z,12.50
2019-05-15T10:48:01.774Z,12.40
2019-05-15T10:50:28.532Z,12.20
2019-05-15T10:52:54.998Z,12.20
2019-05-15T10:55:21.386Z,12.20
2019-05-15T10:57:47.781Z,12.20
2019-05-15T11:00:19.460Z,12.20
2019-05-15T11:02:45.720Z,12.40
2019-05-15T11:05:12.354Z,12.60
2019-05-15T11:07:39.392Z,12.70
2019-05-15T11:10:08.542Z,12.80
2019-05-15T11:12:34.692Z,12.60
2019-05-15T11:15:01.162Z,12.70
2019-05-15T11:17:28.727Z,12.60
2019-05-15T11:19:55.730Z,12.50
2019-05-15T11:22:22.121Z,12.50
2019-05-15T11:24:52.319Z,12.50
2019-05-15T11:27:19.000Z,12.40
2019-05-15T11:29:44.950Z,12.40
2019-05-15T11:32:11.336Z,12.40
2019-05-15T11:34:38.264Z,12.40
2019-05-15T11:37:04.781Z,12.50
2019-05-15T11:39:31.140Z,12.60
2019-05-15T11:41:57.533Z,12.70
2019-05-15T11:44:23.977Z,12.90
2019-05-15T11:46:50.367Z,13.00
2019-05-15T11:49:18.297Z,13.10
2019-05-15T11:51:44.707Z,13.30
2019-05-15T11:54:11.133Z,13.60
2019-05-15T11:56:39.238Z,13.60
2019-05-15T11:59:05.741Z,13.70
2019-05-15T12:01:32.108Z,13.70
2019-05-15T12:03:58.843Z,13.60
2019-05-15T12:06:28.632Z,13.70
2019-05-15T12:08:54.711Z,13.80
2019-05-15T12:11:33.509Z,16.40
2019-05-15T12:13:49.320Z,14.00
2019-05-15T12:16:15.666Z,14.30
2019-05-15T12:18:42.057Z,14.20
2019-05-15T12:21:08.464Z,14.00
2019-05-15T12:23:35.000Z,14.10
2019-05-15T12:26:01.342Z,13.90
2019-05-15T12:28:29.570Z,13.90
2019-05-15T12:30:59.354Z,14.00
2019-05-15T12:33:25.141Z,14.30
2019-05-15T12:35:51.513Z,14.70
2019-05-15T12:38:18.668Z,14.90
2019-05-15T13:00:30.883Z,14.70
2019-05-15T13:02:59.365Z,15.20
2019-05-15T13:05:28.531Z,15.60
2019-05-15T13:07:53.730Z,15.60
2019-05-15T13:10:20.153Z,17.90
2019-05-15T13:12:59.245Z,15.80
2019-05-15T13:15:15.540Z,16.00
2019-05-15T13:17:41.935Z,15.90
2019-05-15T13:20:08.682Z,16.00
2019-05-15T13:22:36.433Z,15.90
2019-05-15T13:25:08.434Z,15.90
2019-05-15T13:27:34.442Z,15.50
2019-05-15T13:30:00.870Z,15.30
2019-05-15T13:32:28.511Z,15.00
2019-05-15T13:34:55.149Z,14.90
2019-05-15T13:37:27.393Z,14.80
2019-05-15T13:39:49.774Z,14.90
2019-05-15T13:42:18.019Z,14.90
2019-05-15T13:44:44.332Z,14.90
2019-05-15T13:47:10.706Z,14.50
2019-05-15T13:49:38.603Z,14.30
2019-05-15T13:52:05.131Z,14.30
2019-05-15T13:54:31.806Z,14.00
2019-05-15T13:56:58.315Z,13.90
2019-05-15T13:59:24.777Z,13.70
2019-05-15T14:01:51.185Z,13.70
2019-05-15T14:04:18.359Z,13.70
2019-05-15T14:06:44.922Z,13.60
2019-05-15T14:09:11.397Z,13.60
2019-05-15T14:11:38.958Z,13.60
2019-05-15T14:14:05.728Z,13.50
2019-05-15T14:16:32.151Z,13.50
2019-05-15T14:18:58.908Z,13.40
2019-05-15T14:21:25.442Z,13.40
2019-05-15T14:23:51.830Z,13.30
2019-05-15T14:26:22.205Z,13.10
2019-05-15T14:28:48.136Z,13.20
2019-05-15T14:31:14.662Z,13.10
2019-05-15T14:33:41.087Z,12.90
2019-05-15T14:36:08.488Z,12.80
2019-05-15T14:38:35.082Z,12.80
2019-05-15T14:41:01.449Z,12.70
2019-05-15T14:43:29.393Z,12.70
2019-05-15T14:45:58.293Z,12.40
2019-05-15T14:48:24.331Z,12.20
2019-05-15T14:50:50.684Z,12.20
2019-05-15T14:53:18.658Z,12.00
2019-05-15T14:55:45.292Z,12.00
2019-05-15T14:58:11.745Z,11.90
2019-05-15T15:00:41.247Z,11.60
2019-05-15T15:03:09.232Z,11.50
2019-05-15T15:05:34.677Z,11.40
2019-05-15T15:08:15.883Z,11.20
2019-05-15T15:10:29.338Z,11.00
2019-05-15T15:12:58.122Z,10.90
2019-05-15T15:15:23.919Z,10.80
2019-05-15T15:17:50.331Z,10.50
2019-05-15T15:20:17.896Z,10.40
2019-05-15T15:22:44.380Z,10.30
2019-05-15T15:25:10.934Z,10.40
2019-05-15T15:27:38.659Z,10.20
2019-05-15T15:30:09.177Z,10.20
2019-05-15T15:32:37.652Z,10.10
2019-05-15T15:35:07.980Z,10.10
2019-05-15T15:37:34.130Z,10.10
2019-05-15T15:40:00.515Z,10.00
2019-05-15T15:42:28.486Z,10.00
2019-05-15T15:44:58.147Z,10.00
2019-05-15T15:47:24.313Z,9.90
2019-05-15T15:49:50.709Z,9.80
2019-05-15T15:52:18.114Z,9.80
2019-05-15T15:54:44.582Z,9.70
2019-05-15T15:57:11.291Z,9.80
2019-05-15T15:59:38.595Z,9.70
2019-05-15T16:02:05.082Z,9.70
2019-05-15T16:04:31.499Z,9.60
2019-05-15T16:06:58.894Z,9.60
2019-05-15T16:09:25.426Z,9.50
2019-05-15T16:11:51.826Z,9.50
2019-05-15T16:14:18.266Z,9.50
2019-05-15T16:16:44.955Z,9.40
2019-05-15T16:19:11.298Z,9.50
2019-05-15T16:21:39.371Z,9.40
2019-05-15T16:24:16.629Z,9.50
2019-05-15T16:26:34.102Z,11.10
2019-05-15T16:29:01.653Z,9.40
2019-05-15T16:31:28.426Z,9.50
2019-05-15T16:33:55.115Z,9.40
2019-05-15T16:36:21.466Z,9.30
2019-05-15T16:38:48.333Z,9.30
2019-05-15T16:41:14.768Z,9.20
2019-05-15T16:43:41.181Z,9.00
2019-05-15T16:46:09.295Z,9.00
2019-05-15T16:48:38.785Z,9.00
2019-05-15T16:51:03.908Z,9.00
2019-05-15T16:53:30.368Z,9.00
2019-05-15T16:55:58.592Z,9.00
2019-05-15T16:58:24.938Z,9.10
2019-05-15T17:00:51.318Z,9.10
2019-05-15T17:03:18.444Z,9.00
2019-05-15T17:05:45.101Z,9.00
2019-05-15T17:08:11.557Z,9.00
2019-05-15T17:10:38.751Z,8.90
2019-05-15T17:13:05.399Z,8.90
2019-05-15T17:15:31.894Z,8.90
2019-05-15T17:17:58.464Z,9.00
2019-05-15T17:20:24.867Z,9.00
2019-05-15T17:22:51.299Z,9.00
2019-05-15T17:25:18.354Z,9.00
2019-05-15T17:27:44.979Z,9.00
2019-05-15T17:30:11.826Z,8.90
2019-05-15T17:32:38.906Z,8.90
2019-05-15T17:35:09.499Z,8.90
2019-05-15T17:37:35.332Z,8.90
2019-05-15T17:40:02.033Z,8.80
2019-05-15T17:42:28.965Z,8.90
2019-05-15T17:44:57.838Z,8.90
2019-05-15T17:47:24.036Z,8.80
2019-05-15T17:49:50.431Z,8.80
2019-05-15T17:52:18.385Z,8.80
2019-05-15T17:54:45.234Z,8.80
2019-05-15T17:57:11.945Z,8.80
2019-05-15T17:59:38.503Z,8.80
2019-05-15T18:02:04.861Z,8.80
2019-05-15T18:04:31.302Z,8.80
2019-05-15T18:06:59.109Z,8.90
2019-05-15T18:09:28.038Z,8.80
2019-05-15T18:11:54.554Z,8.80
2019-05-15T18:14:21.351Z,8.80
2019-05-15T18:16:48.790Z,8.80
2019-05-15T18:19:15.992Z,8.80
2019-05-15T18:21:42.377Z,8.90
2019-05-15T18:24:09.876Z,8.80
2019-05-15T18:26:38.502Z,8.70
2019-05-15T18:29:04.499Z,8.80
2019-05-15T18:31:30.929Z,8.80
2019-05-15T18:33:58.928Z,8.80
2019-05-15T18:36:25.516Z,8.80
2019-05-15T18:38:51.940Z,8.80
2019-05-15T18:41:18.516Z,8.80
2019-05-15T18:43:45.107Z,8.80
2019-05-15T18:46:11.664Z,8.80
2019-05-15T18:48:38.115Z,8.80
2019-05-15T18:51:04.575Z,8.90
2019-05-15T18:53:30.956Z,8.90
2019-05-15T18:55:58.325Z,8.80
2019-05-15T18:58:25.113Z,8.90
2019-05-15T19:00:51.544Z,8.90
2019-05-15T19:03:22.239Z,8.90
2019-05-15T19:05:47.732Z,9.00
2019-05-15T19:08:14.376Z,9.00
2019-05-15T19:10:40.843Z,9.00
2019-05-15T19:13:08.477Z,9.00
2019-05-15T19:15:37.791Z,9.00
2019-05-15T19:18:03.605Z,9.00
2019-05-15T19:20:31.794Z,9.00
2019-05-15T19:22:58.964Z,9.00
2019-05-15T19:25:25.590Z,9.00
2019-05-15T19:27:52.010Z,11.70
2019-05-15T19:30:19.615Z,9.10
2019-05-15T19:32:46.025Z,9.10
2019-05-15T19:35:12.867Z,9.10
2019-05-15T19:37:39.495Z,9.10
2019-05-15T19:40:07.358Z,9.10
2019-05-15T19:42:33.751Z,9.20
2019-05-15T19:45:00.142Z,9.20
2019-05-15T19:47:26.635Z,9.40
2019-05-15T19:49:53.073Z,9.10
2019-05-15T19:52:19.663Z,9.20
2019-05-15T19:54:48.371Z,9.20
2019-05-15T19:57:14.376Z,9.10
2019-05-15T19:59:41.999Z,9.20
2019-05-15T20:02:08.606Z,10.30
2019-05-15T20:04:35.225Z,9.20
2019-05-15T20:07:02.982Z,9.30
2019-05-15T20:09:29.624Z,9.20
2019-05-15T20:11:58.383Z,9.20
2019-05-15T20:14:24.372Z,9.30
2019-05-15T20:16:50.788Z,9.30
2019-05-15T20:19:18.136Z,9.30
2019-05-15T20:21:44.802Z,9.30
2019-05-15T20:24:11.409Z,9.30
2019-05-15T20:26:38.161Z,9.30
2019-05-15T20:29:04.874Z,9.30
2019-05-15T20:31:31.316Z,9.30
2019-05-15T20:34:05.237Z,9.40
2019-05-15T20:36:26.787Z,9.40
2019-05-15T20:38:53.268Z,9.40
2019-05-15T20:41:20.718Z,9.40
2019-05-15T20:43:49.007Z,9.40
2019-05-15T20:46:18.997Z,9.40
2019-05-15T20:48:44.668Z,9.40
2019-05-15T20:51:11.095Z,9.50
2019-05-15T20:53:38.036Z,9.40
2019-05-15T20:56:04.676Z,9.40
2019-05-15T20:58:31.574Z,9.50
2019-05-15T21:00:59.149Z,9.40
2019-05-15T21:03:25.811Z,9.50
2019-05-15T21:05:52.236Z,9.50
2019-05-15T21:08:18.713Z,9.50
2019-05-15T21:10:46.248Z,9.50
2019-05-15T21:13:12.893Z,9.50
2019-05-15T21:15:39.263Z,9.50
2019-05-15T21:18:14.553Z,9.50
2019-05-15T21:20:33.895Z,9.50
2019-05-15T21:23:01.329Z,9.60
2019-05-15T21:25:28.548Z,9.60
2019-05-15T21:27:55.069Z,9.60
2019-05-15T21:30:21.460Z,9.60
2019-05-15T21:32:49.467Z,9.60
2019-05-15T21:35:18.010Z,9.70
2019-05-15T21:37:44.270Z,9.70
2019-05-15T21:40:10.934Z,9.70
2019-05-15T21:42:38.835Z,9.70
2019-05-15T21:45:13.728Z,9.70
2019-05-15T21:47:35.838Z,9.70
2019-05-15T21:50:02.578Z,9.70
2019-05-15T21:52:29.443Z,9.70
2019-05-15T21:54:58.796Z,9.70
2019-05-15T21:57:32.911Z,9.70
2019-05-15T21:59:53.259Z,9.70
2019-05-15T22:02:20.675Z,9.70
2019-05-15T22:04:55.487Z,9.70
2019-05-15T22:07:17.669Z,9.70
2019-05-15T22:09:43.958Z,9.70
2019-05-15T22:12:10.546Z,9.80
2019-05-15T22:14:37.919Z,9.70
2019-05-15T22:17:04.603Z,9.70
2019-05-15T22:19:30.968Z,9.70
2019-05-15T22:21:58.641Z,9.80
2019-05-15T22:24:25.116Z,9.80
2019-05-15T22:26:51.594Z,9.80
2019-05-15T22:29:20.806Z,9.80
2019-05-15T22:31:48.111Z,9.80
2019-05-15T22:34:14.435Z,9.80
2019-05-15T22:36:40.793Z,9.80
2019-05-15T22:39:08.697Z,9.80
2019-05-15T22:41:35.427Z,9.80
2019-05-15T22:44:01.824Z,9.80
2019-05-15T22:46:29.024Z,9.90
2019-05-15T22:48:55.585Z,9.90
2019-05-15T22:51:21.977Z,9.90
2019-05-15T22:53:48.951Z,9.90
2019-05-15T22:56:15.479Z,9.90
2019-05-15T22:58:41.879Z,10.00
2019-05-15T23:01:09.199Z,10.00
2019-05-15T23:03:35.801Z,10.00
2019-05-15T23:06:02.203Z,10.00
2019-05-15T23:08:29.115Z,10.00
2019-05-15T23:10:55.728Z,10.00
2019-05-15T23:13:22.161Z,10.00
2019-05-15T23:15:48.554Z,10.10
2019-05-15T23:18:14.913Z,10.10
2019-05-15T23:20:41.300Z,10.10
2019-05-15T23:23:08.762Z,10.10
2019-05-15T23:25:35.331Z,10.10
2019-05-15T23:28:01.640Z,10.10
2019-05-15T23:30:28.798Z,10.10
2019-05-15T23:32:57.886Z,10.20
2019-05-15T23:35:34.573Z,10.20
2019-05-15T23:37:52.149Z,10.10
2019-05-15T23:40:18.570Z,10.20
2019-05-15T23:42:44.910Z,10.20
2019-05-15T23:45:11.688Z,10.20
2019-05-15T23:47:38.555Z,10.20
2019-05-15T23:50:05.453Z,10.30
2019-05-15T23:52:31.849Z,10.20
2019-05-15T23:54:58.961Z,10.30
2019-05-15T23:57:28.509Z,10.30
2019-05-15T23:59:54.035Z,10.30
